createdAt,value
2023-04-15T00:01:19.811Z,11.86
2023-04-15T00:03:48.920Z,11.86
2023-04-15T00:06:17.592Z,11.98
2023-04-15T00:08:46.045Z,12.03
2023-04-15T00:11:15.855Z,12.02
2023-04-15T00:13:46.031Z,12.02
2023-04-15T00:16:14.380Z,12.05
2023-04-15T00:18:42.877Z,12.07
2023-04-15T00:21:11.191Z,12.08
2023-04-15T00:23:39.691Z,12.11
2023-04-15T00:26:08.033Z,12.11
2023-04-15T00:28:36.409Z,12.13
2023-04-15T00:31:06.639Z,12.21
2023-04-15T00:33:36.740Z,12.22
2023-04-15T00:36:05.931Z,12.33
2023-04-15T00:38:34.923Z,12.34
2023-04-15T00:41:04.521Z,12.40
2023-04-15T00:43:32.924Z,12.43
2023-04-15T00:46:04.103Z,12.36
2023-04-15T00:48:34.135Z,12.32
2023-04-15T00:51:02.488Z,12.32
2023-04-15T00:53:30.864Z,12.34
2023-04-15T00:55:59.329Z,12.34
2023-04-15T00:58:29.325Z,12.36
2023-04-15T01:00:58.354Z,12.37
2023-04-15T01:03:26.852Z,12.41
2023-04-15T01:05:58.833Z,12.45
2023-04-15T01:08:29.195Z,12.47
2023-04-15T01:10:58.435Z,12.48
2023-04-15T01:13:27.173Z,12.54
2023-04-15T01:15:56.265Z,12.58
2023-04-15T01:18:25.651Z,12.62
2023-04-15T01:20:54.272Z,12.66
2023-04-15T01:23:24.316Z,12.65
2023-04-15T01:25:55.266Z,12.72
2023-04-15T01:28:23.764Z,12.75
2023-04-15T01:30:52.058Z,12.80
2023-04-15T01:33:20.448Z,12.67
2023-04-15T01:35:48.781Z,12.70
2023-04-15T01:38:17.311Z,12.71
2023-04-15T01:40:46.254Z,12.72
2023-04-15T01:43:16.140Z,12.73
2023-04-15T01:45:45.095Z,12.72
2023-04-15T01:48:13.443Z,12.67
2023-04-15T01:50:42.215Z,12.67
2023-04-15T01:53:11.178Z,12.64
2023-04-15T01:55:39.666Z,12.61
2023-04-15T01:58:08.366Z,12.59
2023-04-15T02:00:38.278Z,12.57
2023-04-15T02:03:06.761Z,12.57
2023-04-15T02:05:35.165Z,12.62
2023-04-15T02:08:03.961Z,12.59
2023-04-15T02:10:32.290Z,12.50
2023-04-15T02:13:00.752Z,12.51
2023-04-15T02:15:29.148Z,12.50
2023-04-15T02:18:00.977Z,12.42
2023-04-15T02:20:30.814Z,12.44
2023-04-15T02:22:59.272Z,12.36
2023-04-15T02:25:27.682Z,12.28
2023-04-15T02:27:58.790Z,12.20
2023-04-15T02:30:27.375Z,12.20
2023-04-15T02:32:56.303Z,12.12
2023-04-15T02:35:26.177Z,12.03
2023-04-15T02:37:54.563Z,12.06
2023-04-15T02:40:23.623Z,12.07
2023-04-15T02:42:51.936Z,12.10
2023-04-15T02:45:23.845Z,12.11
2023-04-15T02:47:52.258Z,12.10
2023-04-15T02:50:21.099Z,12.07
2023-04-15T02:52:50.846Z,12.04
2023-04-15T02:55:19.461Z,12.03
2023-04-15T02:57:47.757Z,12.05
2023-04-15T03:00:16.345Z,12.07
2023-04-15T03:02:46.194Z,12.10
2023-04-15T03:05:15.547Z,12.09
2023-04-15T03:07:43.884Z,12.03
2023-04-15T03:10:13.609Z,12.01
2023-04-15T03:12:42.069Z,12.02
2023-04-15T03:15:11.777Z,12.02
2023-04-15T03:17:40.137Z,12.02
2023-04-15T03:20:09.727Z,12.07
2023-04-15T03:22:38.245Z,12.06
2023-04-15T03:25:07.828Z,12.13
2023-04-15T03:27:37.542Z,12.17
2023-04-15T03:30:06.754Z,12.13
2023-04-15T03:32:35.304Z,12.12
2023-04-15T03:35:03.666Z,12.05
2023-04-15T03:37:31.952Z,12.00
2023-04-15T03:40:00.283Z,11.97
2023-04-15T03:42:28.697Z,11.91
2023-04-15T03:44:58.574Z,11.84
2023-04-15T03:47:26.948Z,11.93
2023-04-15T03:49:55.258Z,12.03
2023-04-15T03:52:23.584Z,12.08
2023-04-15T03:54:52.480Z,12.26
2023-04-15T03:57:20.845Z,12.49
2023-04-15T03:59:49.155Z,12.76
2023-04-15T04:02:19.214Z,12.93
2023-04-15T04:04:47.718Z,13.04
2023-04-15T04:07:17.791Z,13.20
2023-04-15T04:09:47.354Z,13.11
2023-04-15T04:12:16.002Z,13.26
2023-04-15T04:14:44.560Z,13.50
2023-04-15T04:17:13.020Z,13.67
2023-04-15T04:19:42.929Z,13.70
2023-04-15T04:22:11.439Z,13.69
2023-04-15T04:24:39.900Z,13.63
2023-04-15T04:27:08.200Z,13.62
2023-04-15T04:29:36.487Z,13.35
2023-04-15T04:32:04.886Z,13.08
2023-04-15T04:34:33.858Z,13.00
2023-04-15T04:37:03.575Z,12.93
2023-04-15T04:39:31.882Z,12.89
2023-04-15T04:42:00.205Z,12.87
2023-04-15T04:44:28.556Z,12.87
2023-04-15T04:46:56.864Z,12.88
2023-04-15T04:49:25.120Z,12.89
2023-04-15T04:51:53.969Z,12.97
2023-04-15T04:54:24.094Z,12.90
2023-04-15T04:56:52.509Z,13.06
2023-04-15T04:59:20.857Z,13.05
2023-04-15T05:01:49.577Z,12.95
2023-04-15T05:04:17.915Z,12.96
2023-04-15T05:06:46.321Z,12.99
2023-04-15T05:09:15.026Z,12.91
2023-04-15T05:11:44.728Z,12.88
2023-04-15T05:14:13.092Z,12.94
2023-04-15T05:16:41.653Z,13.00
2023-04-15T05:19:10.194Z,13.08
2023-04-15T05:21:39.526Z,13.18
2023-04-15T05:24:08.410Z,13.25
2023-04-15T05:26:37.080Z,13.30
2023-04-15T05:29:07.920Z,13.49
2023-04-15T05:31:36.456Z,13.26
2023-04-15T05:34:05.413Z,13.18
2023-04-15T05:36:33.710Z,13.19
2023-04-15T05:39:02.445Z,13.22
2023-04-15T05:41:31.026Z,13.37
2023-04-15T05:43:59.330Z,13.32
2023-04-15T05:46:29.232Z,13.33
2023-04-15T05:48:57.529Z,13.22
2023-04-15T05:51:26.059Z,13.16
2023-04-15T05:53:54.461Z,13.19
2023-04-15T05:56:22.769Z,13.19
2023-04-15T05:58:53.679Z,13.27
2023-04-15T06:01:22.358Z,13.35
2023-04-15T06:03:52.253Z,13.51
2023-04-15T06:06:21.094Z,13.23
2023-04-15T06:08:49.431Z,13.16
2023-04-15T06:11:17.797Z,13.02
2023-04-15T06:13:46.369Z,13.04
2023-04-15T06:16:14.838Z,13.20
2023-04-15T06:18:43.143Z,13.08
2023-04-15T06:21:13.075Z,13.02
2023-04-15T06:23:42.345Z,13.00
2023-04-15T06:26:10.899Z,12.94
2023-04-15T06:28:39.339Z,12.84
2023-04-15T06:31:07.819Z,12.68
2023-04-15T06:33:36.196Z,12.61
2023-04-15T06:36:04.638Z,12.59
2023-04-15T06:38:35.601Z,12.52
2023-04-15T06:41:04.857Z,12.47
2023-04-15T06:43:33.290Z,12.62
2023-04-15T06:46:01.653Z,12.75
2023-04-15T06:48:30.007Z,12.77
2023-04-15T06:50:58.989Z,12.91
2023-04-15T06:53:28.088Z,12.94
2023-04-15T06:55:57.990Z,12.96
2023-04-15T06:58:26.651Z,13.14
2023-04-15T07:00:55.088Z,13.17
2023-04-15T07:03:23.450Z,13.26
2023-04-15T07:05:51.736Z,13.28
2023-04-15T07:08:20.697Z,13.14
2023-04-15T07:10:49.191Z,13.15
2023-04-15T07:13:18.966Z,13.32
2023-04-15T07:15:47.233Z,13.49
2023-04-15T07:18:15.647Z,13.59
2023-04-15T07:20:44.680Z,13.69
2023-04-15T07:23:13.027Z,13.62
2023-04-15T07:25:41.424Z,13.73
2023-04-15T07:28:09.911Z,13.94
2023-04-15T07:30:40.000Z,14.16
2023-04-15T07:33:08.627Z,14.20
2023-04-15T07:35:37.025Z,13.83
2023-04-15T07:38:05.596Z,14.02
2023-04-15T07:40:34.606Z,14.03
2023-04-15T07:43:03.574Z,14.04
2023-04-15T07:45:31.890Z,14.07
2023-04-15T07:48:02.068Z,14.22
2023-04-15T07:50:30.832Z,14.51
2023-04-15T07:52:59.101Z,14.79
2023-04-15T07:55:28.298Z,14.94
2023-04-15T07:57:56.821Z,15.58
2023-04-15T08:00:25.578Z,16.17
2023-04-15T08:02:54.447Z,16.13
2023-04-15T08:05:24.954Z,16.04
2023-04-15T08:07:53.351Z,15.94
2023-04-15T08:10:21.866Z,16.05
2023-04-15T08:12:51.067Z,16.45
2023-04-15T08:15:19.763Z,16.54
2023-04-15T08:17:48.104Z,16.75
2023-04-15T08:20:16.876Z,16.43
2023-04-15T08:22:47.966Z,16.88
2023-04-15T08:25:16.760Z,16.67
2023-04-15T08:27:45.189Z,16.54
2023-04-15T08:30:14.724Z,16.55
2023-04-15T08:32:43.953Z,16.65
2023-04-15T08:35:12.287Z,16.70
2023-04-15T08:37:40.666Z,16.61
2023-04-15T08:40:12.232Z,16.36
2023-04-15T08:42:45.770Z,16.42
2023-04-15T08:45:14.109Z,16.28
2023-04-15T08:47:43.684Z,15.26
2023-04-15T08:50:13.463Z,15.14
2023-04-15T08:52:42.354Z,15.12
2023-04-15T08:55:15.467Z,15.46
2023-04-15T08:57:43.888Z,15.67
2023-04-15T09:00:15.290Z,15.92
2023-04-15T09:02:44.841Z,16.04
2023-04-15T09:05:13.376Z,15.95
2023-04-15T09:07:41.781Z,15.75
2023-04-15T09:10:12.750Z,15.70
2023-04-15T09:12:41.572Z,15.23
2023-04-15T09:15:13.114Z,15.33
2023-04-15T09:17:45.950Z,15.26
2023-04-15T09:20:18.917Z,15.17
2023-04-15T09:22:50.096Z,15.11
2023-04-15T09:25:34.873Z,15.13
2023-04-15T09:28:04.284Z,15.15
2023-04-15T09:30:32.760Z,15.45
2023-04-15T09:33:03.172Z,15.92
2023-04-15T09:35:31.714Z,16.24
2023-04-15T09:38:05.522Z,16.63
2023-04-15T09:40:36.640Z,16.76
2023-04-15T09:43:06.303Z,16.69
2023-04-15T09:45:35.279Z,16.53
2023-04-15T09:48:18.357Z,16.53
2023-04-15T09:50:46.785Z,16.55
2023-04-15T09:53:19.382Z,16.81
2023-04-15T09:55:51.717Z,16.93
2023-04-15T09:58:21.005Z,15.85
2023-04-15T10:00:50.839Z,16.45
2023-04-15T10:03:23.219Z,16.47
2023-04-15T10:05:53.706Z,16.41
2023-04-15T10:08:24.169Z,16.67
2023-04-15T10:10:54.784Z,17.04
2023-04-15T10:13:24.990Z,17.11
2023-04-15T10:15:58.994Z,16.92
2023-04-15T10:18:29.024Z,16.71
2023-04-15T10:20:57.759Z,16.61
2023-04-15T10:23:27.593Z,16.26
2023-04-15T10:25:59.213Z,16.58
2023-04-15T10:28:28.208Z,16.35
2023-04-15T10:30:57.132Z,16.29
2023-04-15T10:33:27.220Z,16.21
2023-04-15T10:35:58.288Z,16.04
2023-04-15T10:38:40.171Z,15.13
2023-04-15T10:41:19.488Z,15.87
2023-04-15T10:43:55.322Z,16.28
2023-04-15T10:46:25.783Z,16.86
2023-04-15T10:48:55.417Z,17.39
2023-04-15T10:51:33.001Z,17.58
2023-04-15T10:54:02.345Z,17.54
2023-04-15T10:56:32.663Z,16.84
2023-04-15T10:59:02.715Z,16.78
2023-04-15T11:01:53.382Z,17.09
2023-04-15T11:04:56.479Z,17.07
2023-04-15T11:07:42.602Z,16.56
2023-04-15T11:10:53.028Z,16.84
2023-04-15T11:13:29.454Z,16.58
2023-04-15T11:16:02.854Z,16.25
2023-04-15T11:18:35.822Z,16.30
2023-04-15T11:21:06.862Z,16.18
2023-04-15T11:23:38.579Z,16.04
2023-04-15T11:26:09.929Z,16.04
2023-04-15T11:28:42.128Z,15.95
2023-04-15T11:31:12.354Z,15.81
2023-04-15T11:33:56.625Z,15.82
2023-04-15T11:36:27.979Z,15.77
2023-04-15T11:38:57.314Z,15.65
2023-04-15T11:41:26.174Z,15.54
2023-04-15T11:43:56.162Z,15.34
2023-04-15T11:46:31.044Z,15.09
2023-04-15T11:49:00.289Z,15.09
2023-04-15T11:51:34.044Z,15.18
2023-04-15T11:54:02.884Z,15.19
2023-04-15T11:56:32.159Z,15.29
2023-04-15T11:59:02.165Z,15.30
2023-04-15T12:01:35.304Z,15.42
2023-04-15T12:04:04.622Z,15.55
2023-04-15T12:06:37.368Z,15.66
2023-04-15T12:09:12.492Z,15.69
2023-04-15T12:11:46.247Z,15.58
2023-04-15T12:14:26.394Z,15.57
2023-04-15T12:16:58.382Z,15.58
2023-04-15T12:19:28.777Z,15.70
2023-04-15T12:22:01.412Z,15.84
2023-04-15T12:24:32.480Z,15.85
2023-04-15T12:27:04.559Z,15.68
2023-04-15T12:29:36.737Z,15.67
2023-04-15T12:32:09.979Z,15.61
2023-04-15T12:34:40.329Z,15.72
2023-04-15T12:37:10.875Z,15.53
2023-04-15T12:39:41.293Z,15.67
2023-04-15T12:42:10.432Z,15.87
2023-04-15T12:44:41.218Z,16.02
2023-04-15T12:47:11.083Z,16.20
2023-04-15T12:49:39.923Z,16.25
2023-04-15T12:52:08.956Z,16.33
2023-04-15T12:54:37.329Z,16.42
2023-04-15T12:57:07.432Z,16.51
2023-04-15T12:59:36.360Z,16.67
2023-04-15T13:02:06.489Z,16.57
2023-04-15T13:04:35.072Z,16.68
2023-04-15T13:07:03.859Z,16.73
2023-04-15T13:09:32.570Z,16.84
2023-04-15T13:12:03.194Z,16.83
2023-04-15T13:14:31.725Z,16.88
2023-04-15T13:17:01.624Z,16.86
2023-04-15T13:19:31.600Z,16.74
2023-04-15T13:21:59.971Z,16.99
2023-04-15T13:24:28.432Z,17.14
2023-04-15T13:26:59.302Z,17.16
2023-04-15T13:29:27.987Z,17.19
2023-04-15T13:31:57.037Z,17.18
2023-04-15T13:34:25.720Z,17.08
2023-04-15T13:36:55.900Z,17.07
2023-04-15T13:39:24.546Z,16.88
2023-04-15T13:41:53.215Z,16.79
2023-04-15T13:44:22.301Z,16.46
2023-04-15T13:46:50.851Z,16.18
2023-04-15T13:49:19.435Z,16.27
2023-04-15T13:51:48.185Z,16.33
2023-04-15T13:54:18.153Z,16.11
2023-04-15T13:56:47.221Z,16.12
2023-04-15T13:59:15.842Z,16.18
2023-04-15T14:01:45.197Z,15.94
2023-04-15T14:04:15.278Z,16.02
2023-04-15T14:06:43.723Z,15.83
2023-04-15T14:09:12.244Z,16.00
2023-04-15T14:11:42.133Z,15.48
2023-04-15T14:14:10.594Z,15.40
2023-04-15T14:16:39.543Z,15.52
2023-04-15T14:19:08.657Z,15.49
2023-04-15T14:21:37.758Z,15.38
2023-04-15T14:24:07.576Z,15.30
2023-04-15T14:26:36.297Z,14.99
2023-04-15T14:29:06.347Z,15.07
2023-04-15T14:31:34.789Z,15.09
2023-04-15T14:34:03.539Z,14.76
2023-04-15T14:36:32.608Z,14.62
2023-04-15T14:39:01.169Z,14.47
2023-04-15T14:41:29.549Z,14.35
2023-04-15T14:43:57.973Z,14.38
2023-04-15T14:46:28.219Z,14.26
2023-04-15T14:48:57.154Z,14.29
2023-04-15T14:51:26.652Z,14.45
2023-04-15T14:53:55.760Z,14.57
2023-04-15T14:56:24.240Z,14.64
2023-04-15T14:58:53.317Z,14.58
2023-04-15T15:01:22.097Z,14.46
2023-04-15T15:03:52.403Z,14.50
2023-04-15T15:06:22.761Z,14.53
2023-04-15T15:08:51.380Z,14.44
2023-04-15T15:11:19.660Z,14.42
2023-04-15T15:13:48.156Z,14.15
2023-04-15T15:16:16.598Z,14.02
2023-04-15T15:18:45.603Z,13.80
2023-04-15T15:21:15.932Z,13.63
2023-04-15T15:23:44.544Z,13.76
2023-04-15T15:26:13.351Z,13.70
2023-04-15T15:28:42.313Z,13.69
2023-04-15T15:31:10.988Z,13.77
2023-04-15T15:33:39.408Z,13.67
2023-04-15T15:36:08.174Z,13.75
2023-04-15T15:38:39.066Z,13.79
2023-04-15T15:41:07.398Z,13.70
2023-04-15T15:43:35.748Z,13.70
2023-04-15T15:46:05.211Z,13.61
2023-04-15T15:48:33.642Z,13.45
2023-04-15T15:51:04.283Z,13.43
2023-04-15T15:53:33.177Z,13.36
2023-04-15T15:56:03.872Z,13.34
2023-04-15T15:58:32.552Z,13.36
2023-04-15T16:01:01.930Z,13.30
2023-04-15T16:03:30.867Z,13.27
2023-04-15T16:05:59.447Z,13.01
2023-04-15T16:08:28.006Z,12.78
2023-04-15T16:10:56.446Z,12.73
2023-04-15T16:13:26.270Z,12.63
2023-04-15T16:15:54.776Z,12.57
2023-04-15T16:18:23.090Z,12.53
2023-04-15T16:20:51.421Z,12.52
2023-04-15T16:23:20.737Z,12.50
2023-04-15T16:25:49.263Z,12.48
2023-04-15T16:28:26.309Z,12.50
2023-04-15T16:30:57.279Z,12.47
2023-04-15T16:33:25.670Z,12.41
2023-04-15T16:35:54.234Z,12.39
2023-04-15T16:38:22.710Z,12.36
2023-04-15T16:40:51.635Z,12.28
2023-04-15T16:43:20.176Z,12.25
2023-04-15T16:45:51.575Z,12.23
2023-04-15T16:48:22.197Z,12.20
2023-04-15T16:50:50.641Z,12.17
2023-04-15T16:53:19.274Z,12.25
2023-04-15T16:55:47.704Z,12.07
2023-04-15T16:58:16.472Z,12.01
2023-04-15T17:00:44.855Z,11.93
2023-04-15T17:03:13.298Z,11.88
2023-04-15T17:05:43.550Z,11.86
2023-04-15T17:08:11.914Z,12.00
2023-04-15T17:10:40.455Z,11.98
2023-04-15T17:13:08.855Z,12.06
2023-04-15T17:15:37.207Z,11.86
2023-04-15T17:18:06.802Z,11.80
2023-04-15T17:20:35.817Z,11.78
2023-04-15T17:23:05.628Z,11.57
2023-04-15T17:25:33.955Z,11.56
2023-04-15T17:28:02.717Z,11.63
2023-04-15T17:30:31.287Z,11.59
2023-04-15T17:32:59.867Z,11.55
2023-04-15T17:35:28.520Z,11.56
2023-04-15T17:37:58.036Z,11.76
2023-04-15T17:40:27.797Z,11.71
2023-04-15T17:42:56.109Z,11.70
2023-04-15T17:45:24.571Z,11.70
2023-04-15T17:47:53.127Z,11.73
2023-04-15T17:50:21.791Z,11.58
2023-04-15T17:52:50.424Z,11.45
2023-04-15T17:55:18.982Z,11.59
2023-04-15T17:57:49.262Z,11.59
2023-04-15T18:00:18.597Z,11.62
2023-04-15T18:02:48.750Z,11.62
2023-04-15T18:05:18.899Z,11.49
2023-04-15T18:07:47.449Z,11.40
2023-04-15T18:10:15.926Z,11.33
2023-04-15T18:12:44.255Z,11.30
2023-04-15T18:15:14.737Z,11.27
2023-04-15T18:17:43.197Z,11.22
2023-04-15T18:20:12.919Z,11.22
2023-04-15T18:22:41.304Z,11.23
2023-04-15T18:25:11.405Z,11.23
2023-04-15T18:27:40.618Z,11.22
2023-04-15T18:30:10.174Z,11.29
2023-04-15T18:32:40.524Z,11.47
2023-04-15T18:35:09.889Z,11.58
2023-04-15T18:37:38.408Z,11.60
2023-04-15T18:40:09.046Z,11.57
2023-04-15T18:42:37.470Z,11.51
2023-04-15T18:45:06.429Z,11.42
2023-04-15T18:47:34.932Z,11.34
2023-04-15T18:50:04.940Z,11.33
2023-04-15T18:52:33.916Z,11.29
2023-04-15T18:55:03.421Z,11.25
2023-04-15T18:57:36.364Z,11.24
2023-04-15T19:00:07.735Z,11.16
2023-04-15T19:02:36.160Z,11.06
2023-04-15T19:05:07.018Z,11.05
2023-04-15T19:07:36.153Z,11.26
2023-04-15T19:10:05.005Z,11.31
2023-04-15T19:12:33.592Z,11.40
2023-04-15T19:15:01.939Z,11.51
2023-04-15T19:17:30.481Z,11.52
2023-04-15T19:19:58.861Z,11.44
2023-04-15T19:22:30.207Z,11.32
2023-04-15T19:24:58.640Z,11.25
2023-04-15T19:27:27.085Z,11.20
2023-04-15T19:29:55.396Z,11.27
2023-04-15T19:32:23.812Z,11.25
2023-04-15T19:34:52.452Z,11.15
2023-04-15T19:37:20.926Z,11.12
2023-04-15T19:39:51.204Z,11.13
2023-04-15T19:42:19.571Z,11.07
2023-04-15T19:44:48.270Z,11.12
2023-04-15T19:47:16.903Z,11.14
2023-04-15T19:49:45.350Z,11.15
2023-04-15T19:52:13.929Z,11.17
2023-04-15T19:54:42.478Z,11.10
2023-04-15T19:57:12.258Z,11.12
2023-04-15T19:59:40.848Z,11.27
2023-04-15T20:02:09.833Z,11.29
2023-04-15T20:04:38.294Z,11.39
2023-04-15T20:07:06.692Z,11.40
2023-04-15T20:09:35.416Z,11.37
2023-04-15T20:12:46.227Z,11.37
2023-04-15T20:14:53.785Z,11.37
2023-04-15T20:17:22.141Z,11.39
2023-04-15T20:19:50.521Z,11.49
2023-04-15T20:22:18.912Z,11.62
2023-04-15T20:24:47.473Z,11.58
2023-04-15T20:27:15.817Z,11.56
2023-04-15T20:29:44.258Z,11.54
2023-04-15T20:32:14.111Z,11.50
2023-04-15T20:34:42.705Z,11.59
2023-04-15T20:37:12.542Z,11.62
2023-04-15T20:39:42.637Z,11.64
2023-04-15T20:42:11.345Z,11.67
2023-04-15T20:44:39.873Z,11.68
2023-04-15T20:47:08.590Z,11.81
2023-04-15T20:49:39.653Z,11.88
2023-04-15T20:52:09.165Z,11.93
2023-04-15T20:54:37.515Z,11.95
2023-04-15T20:57:08.019Z,11.94
2023-04-15T20:59:36.430Z,12.02
2023-04-15T21:02:04.994Z,12.05
2023-04-15T21:04:33.420Z,12.06
2023-04-15T21:07:03.199Z,12.11
2023-04-15T21:09:31.564Z,12.02
2023-04-15T21:12:01.891Z,12.00
2023-04-15T21:14:31.087Z,12.00
2023-04-15T21:16:59.586Z,11.99
2023-04-15T21:19:28.028Z,11.97
2023-04-15T21:21:56.327Z,11.97
2023-04-15T21:24:26.387Z,12.19
2023-04-15T21:26:54.800Z,12.22
2023-04-15T21:29:23.123Z,12.23
2023-04-15T21:31:52.280Z,12.33
2023-04-15T21:34:20.801Z,12.41
2023-04-15T21:36:49.159Z,12.22
2023-04-15T21:39:17.550Z,12.37
2023-04-15T21:41:47.430Z,12.27
2023-04-15T21:44:16.156Z,12.16
2023-04-15T21:46:46.024Z,12.16
2023-04-15T21:49:14.774Z,12.21
2023-04-15T21:51:43.227Z,12.26
2023-04-15T21:54:11.594Z,12.33
2023-04-15T21:56:39.929Z,12.30
2023-04-15T21:59:09.659Z,12.23
2023-04-15T22:01:38.245Z,12.12
2023-04-15T22:04:07.650Z,12.12
2023-04-15T22:06:36.201Z,12.01
2023-04-15T22:09:04.783Z,11.91
2023-04-15T22:11:33.214Z,11.88
2023-04-15T22:14:01.657Z,11.81
2023-04-15T22:16:31.590Z,11.75
2023-04-15T22:19:00.362Z,11.73
2023-04-15T22:21:28.697Z,11.69
2023-04-15T22:24:39.090Z,11.76
2023-04-15T22:26:45.331Z,11.77
2023-04-15T22:29:13.749Z,11.72
2023-04-15T22:31:43.888Z,11.72
2023-04-15T22:34:14.716Z,11.85
2023-04-15T22:36:43.115Z,11.85
2023-04-15T22:39:11.508Z,11.78
2023-04-15T22:41:39.964Z,11.81
2023-04-15T22:44:08.317Z,11.75
2023-04-15T22:46:36.731Z,11.76
2023-04-15T22:49:09.309Z,11.75
2023-04-15T22:51:38.529Z,11.74
2023-04-15T22:54:06.833Z,11.74
2023-04-15T22:56:35.225Z,11.75
2023-04-15T22:59:03.524Z,11.72
2023-04-15T23:01:32.451Z,11.69
2023-04-15T23:04:06.473Z,11.61
2023-04-15T23:06:39.308Z,11.60
2023-04-15T23:09:08.281Z,11.51
2023-04-15T23:11:36.924Z,11.46
2023-04-15T23:14:05.532Z,11.43
2023-04-15T23:16:34.084Z,11.39
2023-04-15T23:19:02.635Z,11.35
2023-04-15T23:21:31.527Z,11.30
2023-04-15T23:24:02.009Z,11.24
2023-04-15T23:26:31.266Z,11.17
2023-04-15T23:28:59.624Z,11.14
2023-04-15T23:31:28.137Z,11.16
2023-04-15T23:33:56.520Z,11.14
2023-04-15T23:36:25.020Z,11.12
2023-04-15T23:38:53.569Z,11.00
2023-04-15T23:41:23.589Z,11.02
2023-04-15T23:43:52.572Z,10.95
2023-04-15T23:46:20.962Z,10.96
2023-04-15T23:48:49.851Z,11.03
2023-04-15T23:51:18.491Z,11.02
2023-04-15T23:53:47.214Z,11.04
2023-04-15T23:56:16.044Z,11.07
2023-04-15T23:58:46.284Z,11.09
